createdAt,value
2023-01-08T00:04:38.324Z,13.13
2023-01-08T00:09:41.737Z,12.70
2023-01-08T00:19:48.073Z,11.30
2023-01-08T00:24:51.354Z,11.80
2023-01-08T00:34:58.386Z,8.38
2023-01-08T00:45:06.305Z,7.75
2023-01-08T00:50:10.191Z,8.38
2023-01-08T00:55:13.614Z,7.07
2023-01-08T01:00:17.675Z,4.60
2023-01-08T01:05:21.068Z,3.80
2023-01-08T01:10:25.010Z,3.23
2023-01-08T01:15:28.482Z,4.15
2023-01-08T01:20:32.073Z,4.53
2023-01-08T01:25:38.485Z,4.85
2023-01-08T01:30:41.968Z,4.30
2023-01-08T01:35:45.738Z,6.45
2023-01-08T01:40:50.489Z,8.02
2023-01-08T01:45:54.310Z,5.22
2023-01-08T01:50:57.880Z,4.13
2023-01-08T01:56:01.849Z,4.55
2023-01-08T02:01:08.578Z,6.00
2023-01-08T02:06:48.392Z,8.55
2023-01-08T02:12:04.725Z,6.10
2023-01-08T02:17:13.128Z,9.90
2023-01-08T02:22:25.507Z,8.00
2023-01-08T02:27:31.051Z,8.33
2023-01-08T02:32:38.570Z,8.93
2023-01-08T02:37:43.345Z,10.00
2023-01-08T02:43:24.980Z,9.27
2023-01-08T02:48:37.946Z,9.47
2023-01-08T02:58:48.175Z,9.95
2023-01-08T03:03:57.000Z,9.20
2023-01-08T03:09:02.558Z,11.07
2023-01-08T03:14:41.745Z,9.75
2023-01-08T03:19:50.963Z,9.25
2023-01-08T03:24:55.570Z,11.57
2023-01-08T03:30:00.156Z,10.70
2023-01-08T03:35:08.243Z,9.55
2023-01-08T03:40:18.334Z,7.68
2023-01-08T03:45:24.379Z,10.55
2023-01-08T03:50:31.822Z,7.65
2023-01-08T03:55:36.328Z,12.07
2023-01-08T04:00:39.772Z,11.60
2023-01-08T04:05:44.044Z,8.23
2023-01-08T04:10:47.503Z,9.50
2023-01-08T04:15:51.980Z,11.18
2023-01-08T04:20:55.390Z,10.32
2023-01-08T04:25:58.937Z,14.50
2023-01-08T04:31:10.272Z,15.63
2023-01-08T04:36:14.013Z,15.93
2023-01-08T04:41:18.460Z,21.40
2023-01-08T04:46:21.948Z,17.98
2023-01-08T04:51:25.599Z,15.93
2023-01-08T04:56:30.195Z,21.08
2023-01-08T05:06:36.900Z,20.50
2023-01-08T05:11:40.752Z,16.77
2023-01-08T05:16:45.534Z,18.23
2023-01-08T05:21:49.074Z,22.40
2023-01-08T05:26:52.666Z,15.95
2023-01-08T05:31:56.281Z,16.42
2023-01-08T05:36:59.559Z,19.38
2023-01-08T05:42:03.666Z,14.30
2023-01-08T05:47:08.281Z,17.08
2023-01-08T05:52:12.927Z,15.98
2023-01-08T05:57:16.412Z,11.82
2023-01-08T06:02:19.887Z,15.80
2023-01-08T06:07:23.309Z,14.95
2023-01-08T06:17:29.840Z,16.67
2023-01-08T06:27:39.291Z,15.50
2023-01-08T06:32:43.651Z,15.10
2023-01-08T06:42:50.166Z,16.33
2023-01-08T06:47:53.925Z,15.50
2023-01-08T06:52:58.654Z,16.30
2023-01-08T06:58:01.905Z,15.27
2023-01-08T07:08:15.999Z,20.80
2023-01-08T07:13:19.483Z,20.15
2023-01-08T07:18:22.831Z,23.00
2023-01-08T07:28:29.917Z,18.45
2023-01-08T07:33:35.756Z,16.35
2023-01-08T07:38:39.363Z,16.90
2023-01-08T07:43:42.832Z,19.58
2023-01-08T07:48:47.185Z,21.25
2023-01-08T07:53:51.147Z,20.48
2023-01-08T07:58:54.866Z,19.88
2023-01-08T08:03:58.243Z,20.15
2023-01-08T08:14:04.986Z,17.80
2023-01-08T08:19:08.505Z,23.13
2023-01-08T08:24:12.016Z,24.90
2023-01-08T08:29:15.993Z,25.20
2023-01-08T08:34:19.406Z,25.15
2023-01-08T08:39:22.716Z,22.55
2023-01-08T08:44:26.103Z,23.05
2023-01-08T08:54:32.675Z,22.98
2023-01-08T08:59:36.584Z,22.65
2023-01-08T09:04:40.039Z,25.15
2023-01-08T09:09:43.557Z,23.90
2023-01-08T09:14:46.934Z,22.17
2023-01-08T09:19:50.152Z,26.73
2023-01-08T09:29:56.806Z,21.95
2023-01-08T09:35:00.395Z,25.55
2023-01-08T09:40:04.218Z,25.45
2023-01-08T09:45:23.101Z,22.92
2023-01-08T09:50:28.645Z,25.88
2023-01-08T09:55:34.533Z,25.02
2023-01-08T10:00:38.400Z,24.85
2023-01-08T10:05:42.531Z,27.98
2023-01-08T10:10:46.351Z,22.45
2023-01-08T10:15:50.162Z,21.48
2023-01-08T10:20:54.747Z,24.17
2023-01-08T10:26:01.057Z,22.40
2023-01-08T10:31:08.744Z,27.52
2023-01-08T10:36:23.001Z,22.80
2023-01-08T10:41:27.501Z,22.15
2023-01-08T10:46:43.861Z,23.63
2023-01-08T10:51:52.522Z,22.05
2023-01-08T10:56:56.346Z,24.42
2023-01-08T11:02:00.298Z,24.95
2023-01-08T11:07:07.420Z,24.50
2023-01-08T11:12:34.925Z,28.17
2023-01-08T11:17:38.397Z,20.85
2023-01-08T11:22:41.787Z,25.23
2023-01-08T11:27:45.304Z,24.08
2023-01-08T11:33:05.138Z,20.77
2023-01-08T11:38:13.429Z,21.33
2023-01-08T11:43:38.395Z,29.10
2023-01-08T11:49:14.215Z,24.27
2023-01-08T11:54:55.228Z,20.60
2023-01-08T12:00:43.191Z,21.10
2023-01-08T12:06:11.703Z,20.77
2023-01-08T12:11:24.105Z,18.10
2023-01-08T12:16:50.856Z,26.42
2023-01-08T12:22:00.143Z,21.83
2023-01-08T12:27:19.512Z,20.00
2023-01-08T12:32:44.340Z,19.85
2023-01-08T12:38:02.652Z,18.95
2023-01-08T12:43:14.389Z,18.77
2023-01-08T12:48:24.818Z,20.65
2023-01-08T12:53:45.173Z,18.33
2023-01-08T12:59:07.362Z,25.27
2023-01-08T13:04:11.760Z,18.38
2023-01-08T13:09:24.489Z,16.48
2023-01-08T13:14:29.135Z,15.45
2023-01-08T13:19:45.527Z,16.52
2023-01-08T13:24:48.910Z,16.38
2023-01-08T13:29:53.092Z,17.77
2023-01-08T13:35:08.768Z,18.83
2023-01-08T13:40:43.020Z,15.10
2023-01-08T13:46:19.635Z,13.63
2023-01-08T13:51:35.942Z,14.90
2023-01-08T13:56:42.442Z,16.80
2023-01-08T14:01:54.600Z,14.88
2023-01-08T14:07:15.099Z,11.98
2023-01-08T14:12:22.280Z,15.32
2023-01-08T14:17:34.841Z,15.10
2023-01-08T14:22:41.732Z,20.20
2023-01-08T14:27:58.647Z,22.50
2023-01-08T14:33:04.108Z,16.30
2023-01-08T14:38:13.696Z,13.73
2023-01-08T14:43:21.515Z,15.20
2023-01-08T14:48:36.771Z,15.73
2023-01-08T14:53:45.990Z,14.18
2023-01-08T14:58:49.640Z,19.70
2023-01-08T15:04:05.943Z,14.63
2023-01-08T15:09:31.619Z,17.17
2023-01-08T15:14:35.152Z,18.98
2023-01-08T15:19:59.646Z,14.10
2023-01-08T15:25:07.010Z,13.48
2023-01-08T15:30:46.336Z,18.02
2023-01-08T15:35:51.224Z,13.90
2023-01-08T15:40:55.450Z,16.58
2023-01-08T15:45:58.944Z,20.85
2023-01-08T15:51:02.307Z,17.35
2023-01-08T15:56:05.925Z,18.83
2023-01-08T16:01:10.057Z,16.98
2023-01-08T16:06:13.710Z,15.40
2023-01-08T16:11:19.461Z,16.67
2023-01-08T16:16:24.569Z,14.68
2023-01-08T16:21:31.198Z,19.02
2023-01-08T16:26:35.182Z,21.02
2023-01-08T16:31:40.084Z,22.73
2023-01-08T16:36:43.552Z,21.92
2023-01-08T16:41:50.073Z,23.05
2023-01-08T16:46:53.782Z,22.45
2023-01-08T16:51:58.004Z,19.98
2023-01-08T16:57:02.672Z,24.50
2023-01-08T17:02:07.180Z,21.33
2023-01-08T17:07:14.217Z,23.92
2023-01-08T17:12:18.519Z,28.95
2023-01-08T17:17:27.995Z,28.25
2023-01-08T17:22:35.982Z,22.33
2023-01-08T17:27:39.435Z,21.77
2023-01-08T17:32:47.059Z,21.48
2023-01-08T17:37:53.308Z,26.75
2023-01-08T17:42:57.152Z,24.27
2023-01-08T17:48:04.018Z,25.13
2023-01-08T17:53:07.519Z,18.63
2023-01-08T17:58:14.527Z,20.45
2023-01-08T18:03:18.138Z,20.65
2023-01-08T18:08:21.528Z,16.75
2023-01-08T18:18:28.406Z,20.45
2023-01-08T18:23:32.568Z,20.08
2023-01-08T18:28:36.913Z,18.10
2023-01-08T18:33:40.891Z,12.93
2023-01-08T18:38:45.131Z,11.02
2023-01-08T18:43:48.563Z,9.30
2023-01-08T18:48:58.341Z,9.27
2023-01-08T18:54:02.508Z,12.13
2023-01-08T18:59:07.865Z,10.57
2023-01-08T19:04:16.465Z,10.60
2023-01-08T19:09:22.655Z,11.45
2023-01-08T19:14:26.497Z,11.68
2023-01-08T19:19:30.070Z,13.20
2023-01-08T19:29:37.155Z,15.05
2023-01-08T19:34:41.287Z,18.63
2023-01-08T19:39:44.664Z,22.33
2023-01-08T19:44:49.882Z,20.60
2023-01-08T19:49:53.311Z,21.25
2023-01-08T19:54:56.697Z,20.10
2023-01-08T20:00:00.510Z,25.60
2023-01-08T20:05:06.147Z,23.70
2023-01-08T20:10:14.018Z,24.10
2023-01-08T20:15:17.572Z,25.45
2023-01-08T20:20:21.244Z,23.83
2023-01-08T20:25:24.651Z,24.88
2023-01-08T20:30:28.355Z,30.20
2023-01-08T20:35:31.868Z,32.35
2023-01-08T20:40:37.648Z,29.98
2023-01-08T20:45:44.951Z,26.80
2023-01-08T20:50:59.143Z,27.33
2023-01-08T20:56:12.254Z,28.17
2023-01-08T21:01:19.058Z,27.58
2023-01-08T21:06:27.614Z,27.20
2023-01-08T21:11:33.491Z,29.30
2023-01-08T21:16:38.022Z,29.00
2023-01-08T21:21:41.708Z,29.98
2023-01-08T21:26:46.970Z,33.05
2023-01-08T21:31:50.890Z,28.52
2023-01-08T21:36:54.459Z,33.47
2023-01-08T21:42:00.435Z,33.63
2023-01-08T21:47:07.146Z,31.75
2023-01-08T21:52:16.954Z,32.03
2023-01-08T21:57:21.024Z,35.17
2023-01-08T22:02:25.346Z,37.10
2023-01-08T22:07:34.213Z,34.65
2023-01-08T22:12:42.330Z,32.20
2023-01-08T22:17:45.843Z,34.10
2023-01-08T22:22:53.430Z,36.38
2023-01-08T22:28:00.329Z,38.17
2023-01-08T22:33:03.669Z,37.95
2023-01-08T22:38:07.080Z,41.60
2023-01-08T22:48:13.549Z,41.40
2023-01-08T22:53:23.322Z,37.63
2023-01-08T22:58:32.082Z,41.25
2023-01-08T23:08:40.036Z,42.42
2023-01-08T23:13:45.323Z,37.70
2023-01-08T23:18:48.716Z,42.20
2023-01-08T23:28:57.485Z,36.67
2023-01-08T23:34:00.930Z,37.45
2023-01-08T23:39:05.082Z,39.33
2023-01-08T23:44:14.967Z,41.15
2023-01-08T23:49:18.442Z,41.25
2023-01-08T23:54:22.149Z,41.47
2023-01-08T23:59:26.890Z,34.47
